Terminal Aerodrome Forecast
Issued by NWS Goodland, KS

Home | Current Version | Previous Version | Text Only | Print | Product List | Glossary On
Versions: 1 2 3 4 5 6 7 8 9 10 11 12 13 14 15 16 17
665
FTUS43 KGLD 101120
TAFGLD
TAF
KGLD 101120Z 1012/1112 27013G19KT P6SM SKC WS020/32040KT
     FM101700 30015G23KT P6SM SKC
     FM110000 32010KT P6SM SKC
     FM111100 29007KT P6SM FEW250=

USA.gov is the U.S. government's official web portal to all federal, state and local government web resources and services.